createdAt,value
2018-02-11T00:01:22.022Z,82.60
2018-02-11T00:03:49.613Z,73.67
2018-02-11T00:06:17.168Z,73.97
2018-02-11T00:08:44.758Z,79.07
2018-02-11T00:11:13.094Z,75.27
2018-02-11T00:13:40.686Z,80.83
2018-02-11T00:16:09.023Z,78.33
2018-02-11T00:18:36.592Z,73.43
2018-02-11T00:21:04.150Z,77.37
2018-02-11T00:23:31.750Z,82.10
2018-02-11T00:25:59.291Z,75.70
2018-02-11T00:28:26.894Z,76.43
2018-02-11T00:30:54.462Z,80.33
2018-02-11T00:33:22.032Z,78.43
2018-02-11T00:35:49.603Z,77.57
2018-02-11T00:38:17.215Z,80.43
2018-02-11T00:40:44.766Z,74.80
2018-02-11T00:43:12.358Z,82.10
2018-02-11T00:45:39.925Z,78.67
2018-02-11T00:48:07.510Z,75.73
2018-02-11T00:50:35.049Z,71.10
2018-02-11T00:53:02.614Z,74.10
2018-02-11T00:55:30.169Z,76.07
2018-02-11T00:57:57.750Z,77.10
2018-02-11T01:00:25.281Z,76.90
2018-02-11T01:02:52.840Z,78.77
2018-02-11T01:05:20.426Z,73.03
2018-02-11T01:07:48.808Z,90.07
2018-02-11T01:10:17.141Z,80.33
2018-02-11T01:12:44.717Z,74.77
2018-02-11T01:15:12.273Z,74.27
2018-02-11T01:17:39.863Z,79.43
2018-02-11T01:20:07.428Z,72.90
2018-02-11T01:22:35.781Z,82.17
2018-02-11T01:25:03.353Z,89.07
2018-02-11T01:27:30.998Z,80.00
2018-02-11T01:29:58.558Z,84.53
2018-02-11T01:32:26.117Z,81.87
2018-02-11T01:34:53.691Z,76.07
2018-02-11T01:37:21.240Z,90.43
2018-02-11T01:39:48.807Z,73.83
2018-02-11T01:42:16.426Z,70.90
2018-02-11T01:44:44.045Z,71.17
2018-02-11T01:47:12.375Z,70.80
2018-02-11T01:49:39.964Z,74.93
2018-02-11T01:52:07.580Z,69.47
2018-02-11T01:54:35.168Z,79.23
2018-02-11T01:57:02.718Z,72.07
2018-02-11T01:59:30.291Z,72.80
2018-02-11T02:01:57.848Z,66.00
2018-02-11T02:04:25.493Z,79.43
2018-02-11T02:06:53.050Z,75.23
2018-02-11T02:09:20.644Z,82.83
2018-02-11T02:11:48.945Z,86.10
2018-02-11T02:14:16.526Z,88.27
2018-02-11T02:16:44.089Z,81.50
2018-02-11T02:19:11.665Z,87.77
2018-02-11T02:21:39.201Z,80.67
2018-02-11T02:24:06.804Z,89.83
2018-02-11T02:26:34.352Z,80.03
2018-02-11T02:29:01.912Z,81.10
2018-02-11T02:31:29.516Z,74.70
2018-02-11T02:33:57.085Z,83.33
2018-02-11T02:36:24.628Z,77.63
2018-02-11T02:38:52.945Z,88.07
2018-02-11T02:41:20.533Z,81.80
2018-02-11T02:43:48.105Z,81.67
2018-02-11T02:46:15.701Z,94.27
2018-02-11T02:48:43.249Z,80.43
2018-02-11T02:51:10.851Z,92.47
2018-02-11T02:53:38.393Z,81.40
2018-02-11T02:56:05.979Z,80.73
2018-02-11T02:58:33.525Z,84.63
2018-02-11T03:01:01.097Z,90.53
2018-02-11T03:03:28.657Z,87.77
2018-02-11T03:05:56.210Z,82.63
2018-02-11T03:08:23.787Z,92.73
2018-02-11T03:10:52.151Z,80.83
2018-02-11T03:13:19.701Z,86.37
2018-02-11T03:15:47.268Z,77.90
2018-02-11T03:18:14.819Z,74.40
2018-02-11T03:20:42.440Z,72.13
2018-02-11T03:23:09.980Z,72.43
2018-02-11T03:25:38.305Z,81.33
2018-02-11T03:28:05.852Z,73.03
2018-02-11T03:30:35.327Z,68.47
2018-02-11T03:33:02.885Z,68.50
2018-02-11T03:35:30.438Z,71.07
2018-02-11T03:37:58.025Z,73.03
2018-02-11T03:40:25.572Z,69.30
2018-02-11T03:42:53.137Z,70.97
2018-02-11T03:45:20.669Z,73.10
2018-02-11T03:47:48.996Z,67.90
2018-02-11T03:50:30.269Z,63.93
2018-02-11T03:52:57.829Z,61.47
2018-02-11T03:55:25.368Z,65.37
2018-02-11T03:57:52.976Z,56.10
2018-02-11T04:00:20.517Z,65.83
2018-02-11T04:02:48.069Z,62.50
2018-02-11T04:05:15.612Z,52.27
2018-02-11T04:07:43.956Z,52.43
2018-02-11T04:10:12.284Z,55.63
2018-02-11T04:12:39.848Z,49.60
2018-02-11T04:15:07.380Z,55.10
2018-02-11T04:17:34.940Z,53.70
2018-02-11T04:20:02.858Z,55.27
2018-02-11T04:22:31.181Z,44.80
2018-02-11T04:24:58.735Z,46.83
2018-02-11T04:27:26.272Z,44.83
2018-02-11T04:29:54.594Z,46.60
2018-02-11T04:32:22.128Z,47.00
2018-02-11T04:34:49.691Z,47.77
2018-02-11T04:37:17.232Z,39.63
2018-02-11T04:39:44.784Z,43.73
2018-02-11T04:42:12.324Z,44.30
2018-02-11T04:44:40.660Z,40.20
2018-02-11T04:47:08.245Z,42.27
2018-02-11T04:49:35.793Z,43.13
2018-02-11T04:52:03.321Z,43.87
2018-02-11T04:54:30.877Z,44.23
2018-02-11T04:56:59.185Z,39.13
2018-02-11T04:59:26.735Z,38.13
2018-02-11T05:01:54.268Z,39.70
2018-02-11T05:04:21.834Z,38.13
2018-02-11T05:06:49.368Z,39.33
2018-02-11T05:09:16.929Z,40.87
2018-02-11T05:11:44.465Z,39.00
2018-02-11T05:14:12.925Z,36.93
2018-02-11T05:16:40.462Z,35.10
2018-02-11T05:19:08.064Z,35.53
2018-02-11T05:21:36.362Z,44.07
2018-02-11T05:24:03.913Z,36.60
2018-02-11T05:26:31.447Z,40.43
2018-02-11T05:28:58.998Z,33.17
2018-02-11T05:31:26.533Z,36.10
2018-02-11T05:33:54.090Z,33.03
2018-02-11T05:36:21.637Z,31.27
2018-02-11T05:38:49.185Z,30.83
2018-02-11T05:41:16.738Z,32.30
2018-02-11T05:43:44.304Z,36.33
2018-02-11T05:46:11.841Z,32.70
2018-02-11T05:48:39.398Z,30.77
2018-02-11T05:51:06.936Z,29.50
2018-02-11T05:53:34.465Z,30.93
2018-02-11T05:56:02.891Z,36.17
2018-02-11T05:58:31.184Z,28.63
2018-02-11T06:00:58.736Z,24.50
2018-02-11T06:03:26.268Z,29.10
2018-02-11T06:05:53.819Z,30.77
2018-02-11T06:08:21.360Z,28.10
2018-02-11T06:10:48.921Z,30.43
2018-02-11T06:13:16.457Z,29.17
2018-02-11T06:15:44.017Z,26.27
2018-02-11T06:18:11.560Z,33.03
2018-02-11T06:20:39.124Z,29.17
2018-02-11T06:23:06.649Z,28.60
2018-02-11T06:25:34.973Z,29.87
2018-02-11T06:28:02.500Z,29.03
2018-02-11T06:30:30.049Z,28.13
2018-02-11T06:32:57.582Z,27.43
2018-02-11T06:35:25.921Z,24.50
2018-02-11T06:37:53.465Z,23.80
2018-02-11T06:40:21.029Z,27.20
2018-02-11T06:42:48.560Z,25.00
2018-02-11T06:45:16.138Z,25.10
2018-02-11T06:47:43.664Z,27.87
2018-02-11T06:50:11.981Z,26.77
2018-02-11T06:52:39.513Z,21.27
2018-02-11T06:55:07.068Z,20.83
2018-02-11T06:57:34.630Z,21.87
2018-02-11T07:00:02.193Z,26.07
2018-02-11T07:02:29.738Z,24.73
2018-02-11T07:04:58.049Z,20.80
2018-02-11T07:07:25.579Z,21.13
2018-02-11T07:09:53.139Z,21.80
2018-02-11T07:12:20.667Z,20.73
2018-02-11T07:14:48.264Z,19.63
2018-02-11T07:17:15.793Z,22.53
2018-02-11T07:19:44.128Z,19.10
2018-02-11T07:22:11.662Z,19.97
2018-02-11T07:24:39.220Z,23.83
2018-02-11T07:27:06.744Z,16.73
2018-02-11T07:29:35.055Z,17.80
2018-02-11T07:32:02.574Z,15.53
2018-02-11T07:34:30.948Z,14.80
2018-02-11T07:36:58.445Z,13.77
2018-02-11T07:39:25.991Z,14.90
2018-02-11T07:41:53.517Z,14.70
2018-02-11T07:44:21.064Z,13.50
2018-02-11T07:46:48.591Z,13.37
2018-02-11T07:49:16.140Z,15.13
2018-02-11T07:51:43.688Z,10.20
2018-02-11T07:54:11.212Z,14.07
2018-02-11T07:56:38.789Z,13.00
2018-02-11T07:59:06.300Z,15.90
2018-02-11T08:01:33.842Z,16.93
2018-02-11T08:04:01.362Z,12.50
2018-02-11T08:06:29.678Z,12.77
2018-02-11T08:08:57.196Z,10.53
2018-02-11T08:11:24.734Z,13.63
2018-02-11T08:13:53.036Z,7.13
2018-02-11T08:16:21.348Z,10.80
2018-02-11T08:18:48.881Z,11.90
2018-02-11T08:21:16.425Z,11.83
2018-02-11T08:23:44.725Z,12.63
2018-02-11T08:26:12.276Z,12.07
2018-02-11T08:28:39.820Z,11.07
2018-02-11T08:31:08.124Z,11.33
2018-02-11T08:33:35.637Z,13.53
2018-02-11T08:36:03.948Z,10.87
2018-02-11T08:38:31.464Z,12.00
2018-02-11T08:40:59.008Z,11.87
2018-02-11T08:43:26.548Z,14.07
2018-02-11T08:45:54.085Z,12.77
2018-02-11T08:48:21.638Z,16.63
2018-02-11T08:50:49.172Z,12.57
2018-02-11T08:53:17.477Z,12.47
2018-02-11T08:55:44.996Z,8.27
2018-02-11T08:58:13.309Z,14.87
2018-02-11T09:00:40.839Z,12.40
2018-02-11T09:03:09.138Z,12.93
2018-02-11T09:05:36.668Z,11.80
2018-02-11T09:08:04.975Z,12.30
2018-02-11T09:10:32.494Z,10.40
2018-02-11T09:13:00.805Z,16.53
2018-02-11T09:15:28.328Z,10.90
2018-02-11T09:17:55.885Z,13.80
2018-02-11T09:20:23.412Z,12.13
2018-02-11T09:22:50.953Z,12.50
2018-02-11T09:25:18.468Z,8.13
2018-02-11T09:27:46.777Z,14.07
2018-02-11T09:30:14.292Z,11.70
2018-02-11T09:32:41.875Z,13.00
2018-02-11T09:35:09.407Z,12.87
2018-02-11T09:37:36.929Z,13.30
2018-02-11T09:40:04.504Z,12.70
2018-02-11T09:42:32.064Z,13.30
2018-02-11T09:44:59.674Z,13.90
2018-02-11T09:47:27.259Z,9.23
2018-02-11T09:49:54.801Z,11.13
2018-02-11T09:52:22.318Z,13.47
2018-02-11T09:54:50.956Z,13.37
2018-02-11T09:57:18.537Z,7.07
2018-02-11T09:59:46.156Z,9.43
2018-02-11T10:02:13.730Z,10.57
2018-02-11T10:04:41.417Z,11.07
2018-02-11T10:07:09.551Z,12.77
2018-02-11T10:09:37.148Z,13.17
2018-02-11T10:12:04.718Z,12.00
2018-02-11T10:14:32.287Z,14.70
2018-02-11T10:16:59.937Z,13.20
2018-02-11T10:19:28.347Z,13.53
2018-02-11T10:21:56.719Z,14.27
2018-02-11T10:24:24.589Z,13.50
2018-02-11T10:26:52.158Z,15.23
2018-02-11T10:29:20.460Z,13.33
2018-02-11T10:31:48.828Z,11.93
2018-02-11T10:34:16.382Z,12.07
2018-02-11T10:36:43.976Z,13.30
2018-02-11T10:39:11.504Z,9.33
2018-02-11T10:41:39.279Z,14.63
2018-02-11T10:44:06.896Z,12.57
2018-02-11T10:46:35.222Z,14.23
2018-02-11T10:49:03.540Z,15.23
2018-02-11T10:51:31.876Z,14.37
2018-02-11T10:53:59.404Z,12.57
2018-02-11T10:56:27.045Z,18.63
2018-02-11T10:58:55.339Z,15.93
2018-02-11T11:01:22.885Z,14.07
2018-02-11T11:03:51.169Z,14.27
2018-02-11T11:06:19.518Z,13.80
2018-02-11T11:08:47.816Z,15.67
2018-02-11T11:11:15.356Z,14.00
2018-02-11T11:13:43.672Z,13.70
2018-02-11T11:16:11.243Z,16.10
2018-02-11T11:18:38.792Z,16.53
2018-02-11T11:21:07.405Z,15.80
2018-02-11T11:23:35.037Z,14.33
2018-02-11T11:26:02.637Z,14.40
2018-02-11T11:28:30.182Z,14.30
2018-02-11T11:30:57.800Z,14.90
2018-02-11T11:33:25.427Z,13.03
2018-02-11T11:35:53.173Z,16.93
2018-02-11T11:41:28.662Z,17.10
2018-02-11T11:43:59.507Z,21.00
2018-02-11T11:46:29.526Z,19.87
2018-02-11T11:48:58.088Z,19.57
2018-02-11T11:51:34.260Z,20.37
2018-02-11T11:54:04.033Z,17.03
2018-02-11T11:56:32.307Z,22.57
2018-02-11T11:59:00.181Z,17.43
2018-02-11T12:01:28.300Z,20.13
2018-02-11T12:03:56.098Z,17.73
2018-02-11T12:06:24.232Z,18.53
2018-02-11T12:08:52.110Z,22.30
2018-02-11T12:11:20.768Z,21.10
2018-02-11T12:14:07.981Z,17.17
2018-02-11T12:16:36.671Z,18.77
2018-02-11T12:19:06.699Z,22.43
2018-02-11T12:21:34.543Z,19.20
2018-02-11T12:24:04.978Z,17.97
2018-02-11T12:26:33.696Z,19.77
2018-02-11T12:29:02.399Z,20.43
2018-02-11T12:31:30.362Z,19.63
2018-02-11T12:33:58.849Z,18.27
2018-02-11T12:36:26.575Z,18.50
2018-02-11T12:38:54.178Z,16.83
2018-02-11T12:41:22.136Z,18.27
2018-02-11T12:43:49.777Z,22.47
2018-02-11T12:46:17.508Z,22.03
2018-02-11T12:48:45.116Z,21.67
2018-02-11T12:51:13.529Z,23.23
2018-02-11T12:53:43.414Z,22.33
2018-02-11T12:56:16.436Z,20.90
2018-02-11T12:58:45.611Z,18.10
2018-02-11T13:01:13.917Z,18.87
2018-02-11T13:03:41.814Z,19.90
2018-02-11T13:06:11.426Z,23.13
2018-02-11T13:08:41.867Z,19.23
2018-02-11T13:11:09.779Z,16.60
2018-02-11T13:13:38.049Z,20.63
2018-02-11T13:16:06.831Z,24.10
2018-02-11T13:18:37.691Z,27.30
2018-02-11T13:21:18.352Z,24.33
2018-02-11T13:23:47.467Z,21.53
2018-02-11T13:26:36.180Z,25.53
2018-02-11T13:29:03.901Z,21.93
2018-02-11T13:31:31.439Z,22.73
2018-02-11T13:33:59.729Z,25.00
2018-02-11T13:36:27.260Z,24.40
2018-02-11T13:38:55.569Z,20.17
2018-02-11T13:41:23.101Z,20.70
2018-02-11T13:43:51.404Z,25.83
2018-02-11T13:46:18.972Z,19.67
2018-02-11T13:48:46.512Z,19.73
2018-02-11T13:51:14.026Z,25.13
2018-02-11T13:53:41.580Z,27.67
2018-02-11T13:56:09.113Z,27.63
2018-02-11T13:58:36.644Z,22.77
2018-02-11T14:01:04.174Z,23.23
2018-02-11T14:03:31.708Z,20.90
2018-02-11T14:06:00.058Z,26.80
2018-02-11T14:08:27.598Z,21.03
2018-02-11T14:10:55.168Z,23.77
2018-02-11T14:13:22.709Z,24.37
2018-02-11T14:15:51.020Z,29.00
2018-02-11T14:18:18.561Z,25.53
2018-02-11T14:20:46.092Z,22.57
2018-02-11T14:23:14.400Z,23.97
2018-02-11T14:25:41.968Z,26.33
2018-02-11T14:28:09.511Z,27.80
2018-02-11T14:30:37.033Z,30.53
2018-02-11T14:33:04.580Z,22.53
2018-02-11T14:35:32.106Z,29.10
2018-02-11T14:37:59.644Z,29.30
2018-02-11T14:40:27.153Z,26.13
2018-02-11T14:42:54.700Z,26.40
2018-02-11T14:45:22.222Z,27.50
2018-02-11T14:47:50.520Z,29.83
2018-02-11T14:50:18.043Z,26.23
2018-02-11T14:52:45.581Z,30.40
2018-02-11T14:55:13.906Z,24.53
2018-02-11T14:57:41.458Z,30.53
2018-02-11T15:00:08.983Z,29.60
2018-02-11T15:02:36.528Z,28.67
2018-02-11T15:05:04.820Z,30.43
2018-02-11T15:07:32.370Z,36.10
2018-02-11T15:10:00.657Z,33.47
2018-02-11T15:12:28.204Z,34.33
2018-02-11T15:14:56.497Z,31.47
2018-02-11T15:17:24.037Z,31.63
2018-02-11T15:19:52.331Z,25.47
2018-02-11T15:22:19.872Z,34.00
2018-02-11T15:24:48.157Z,25.73
2018-02-11T15:27:15.733Z,22.77
2018-02-11T15:29:43.279Z,31.87
2018-02-11T15:32:10.800Z,32.70
2018-02-11T15:34:38.343Z,27.63
2018-02-11T15:37:05.866Z,37.50
2018-02-11T15:39:33.402Z,32.97
2018-02-11T15:42:01.703Z,33.83
2018-02-11T15:44:29.362Z,38.27
2018-02-11T15:46:56.891Z,30.00
2018-02-11T15:49:25.195Z,28.57
2018-02-11T15:51:52.722Z,32.83
2018-02-11T15:54:21.064Z,30.17
2018-02-11T15:56:48.584Z,28.07
2018-02-11T15:59:16.108Z,29.63
2018-02-11T16:01:44.471Z,31.57
2018-02-11T16:04:11.988Z,29.93
2018-02-11T16:06:39.538Z,28.27
2018-02-11T16:09:07.056Z,24.07
2018-02-11T16:11:34.607Z,27.73
2018-02-11T16:14:02.138Z,29.53
2018-02-11T16:16:29.687Z,29.07
2018-02-11T16:18:57.405Z,28.20
2018-02-11T16:21:25.716Z,28.17
2018-02-11T16:23:53.240Z,26.60
2018-02-11T16:26:21.548Z,26.60
2018-02-11T16:28:49.080Z,29.93
2018-02-11T16:31:16.628Z,26.73
2018-02-11T16:33:44.915Z,29.20
2018-02-11T16:36:12.468Z,31.03
2018-02-11T16:38:40.757Z,20.37
2018-02-11T16:41:08.334Z,33.03
2018-02-11T16:43:35.870Z,28.20
2018-02-11T16:46:03.420Z,27.00
2018-02-11T16:48:31.715Z,25.20
2018-02-11T16:50:59.305Z,27.37
2018-02-11T16:53:26.841Z,30.20
2018-02-11T16:55:54.389Z,30.10
2018-02-11T16:58:21.957Z,26.40
2018-02-11T17:00:49.493Z,31.13
2018-02-11T17:03:17.042Z,26.67
2018-02-11T17:05:45.340Z,27.87
2018-02-11T17:08:12.888Z,31.13
2018-02-11T17:10:40.420Z,25.80
2018-02-11T17:13:07.964Z,26.00
2018-02-11T17:15:35.488Z,65.27
2018-02-11T17:18:03.044Z,27.17
2018-02-11T17:20:30.613Z,24.07
2018-02-11T17:22:58.169Z,29.30
2018-02-11T17:25:25.700Z,23.57
2018-02-11T17:27:53.248Z,27.60
2018-02-11T17:30:20.785Z,23.43
2018-02-11T17:32:49.104Z,24.97
2018-02-11T17:35:16.633Z,26.00
2018-02-11T17:37:44.940Z,23.43
2018-02-11T17:40:12.688Z,23.13
2018-02-11T17:42:40.229Z,20.60
2018-02-11T17:45:08.516Z,21.53
2018-02-11T17:47:36.814Z,22.77
2018-02-11T17:50:04.361Z,24.50
2018-02-11T17:52:31.881Z,25.70
2018-02-11T17:54:59.429Z,24.83
2018-02-11T17:57:27.745Z,25.60
2018-02-11T17:59:55.290Z,21.00
2018-02-11T18:02:23.580Z,26.73
2018-02-11T18:04:51.129Z,24.40
2018-02-11T18:07:18.646Z,22.37
2018-02-11T18:09:46.185Z,24.73
2018-02-11T18:12:13.706Z,26.60
2018-02-11T18:14:42.016Z,23.70
2018-02-11T18:17:09.548Z,24.63
2018-02-11T18:19:37.112Z,22.17
2018-02-11T18:22:04.634Z,24.10
2018-02-11T18:24:32.932Z,29.20
2018-02-11T18:27:00.477Z,27.57
2018-02-11T18:29:28.773Z,30.20
2018-02-11T18:31:56.324Z,28.23
2018-02-11T18:34:23.852Z,27.03
2018-02-11T18:36:51.405Z,28.03
2018-02-11T18:39:18.932Z,25.60
2018-02-11T18:41:46.476Z,25.07
2018-02-11T18:44:13.994Z,23.17
2018-02-11T18:46:41.541Z,25.80
2018-02-11T18:49:09.080Z,25.80
2018-02-11T18:51:36.624Z,24.90
2018-02-11T18:54:04.153Z,23.17
2018-02-11T18:56:31.704Z,25.70
2018-02-11T18:59:00.013Z,23.63
2018-02-11T19:01:27.573Z,21.00
2018-02-11T19:03:55.096Z,24.07
2018-02-11T19:06:22.643Z,24.40
2018-02-11T19:08:50.931Z,22.73
2018-02-11T19:11:18.485Z,25.63
2018-02-11T19:13:46.829Z,25.27
2018-02-11T19:16:14.373Z,24.13
2018-02-11T19:18:41.952Z,23.37
2018-02-11T19:21:09.469Z,23.00
2018-02-11T19:23:37.014Z,23.87
2018-02-11T19:26:04.556Z,22.50
2018-02-11T19:28:32.873Z,24.90
2018-02-11T19:31:00.395Z,20.67
2018-02-11T19:33:28.700Z,23.73
2018-02-11T19:35:56.224Z,27.40
2018-02-11T19:38:24.537Z,23.97
2018-02-11T19:40:52.058Z,22.77
2018-02-11T19:43:20.381Z,23.90
2018-02-11T19:45:47.908Z,21.97
2018-02-11T19:48:15.447Z,21.10
2018-02-11T19:50:43.738Z,23.63
2018-02-11T19:53:11.289Z,21.30
2018-02-11T19:55:39.573Z,19.27
2018-02-11T19:58:07.170Z,24.07
2018-02-11T20:00:34.692Z,27.40
2018-02-11T20:03:02.243Z,28.73
2018-02-11T20:05:29.777Z,28.17
2018-02-11T20:07:57.312Z,28.70
2018-02-11T20:10:24.848Z,27.30
2018-02-11T20:12:52.404Z,26.03
2018-02-11T20:15:19.930Z,28.70
2018-02-11T20:17:48.338Z,29.07
2018-02-11T20:20:33.609Z,25.57
2018-02-11T20:23:01.160Z,26.40
2018-02-11T20:25:28.689Z,23.27
2018-02-11T20:27:57.003Z,27.77
2018-02-11T20:30:24.523Z,29.73
2018-02-11T20:32:52.833Z,27.50
2018-02-11T20:35:20.401Z,28.03
2018-02-11T20:37:47.951Z,30.17
2018-02-11T20:40:15.700Z,30.30
2018-02-11T20:42:43.249Z,27.67
2018-02-11T20:45:11.536Z,29.33
2018-02-11T20:47:39.081Z,31.60
2018-02-11T20:50:07.435Z,25.77
2018-02-11T20:52:34.984Z,26.27
2018-02-11T20:55:02.508Z,27.77
2018-02-11T20:57:30.053Z,25.20
2018-02-11T20:59:57.610Z,25.50
2018-02-11T21:02:25.174Z,34.17
2018-02-11T21:04:53.459Z,29.83
2018-02-11T21:07:20.992Z,28.53
2018-02-11T21:09:56.110Z,24.53
2018-02-11T21:12:24.400Z,25.67
2018-02-11T21:14:52.701Z,28.13
2018-02-11T21:17:20.232Z,26.93
2018-02-11T21:19:48.536Z,30.27
2018-02-11T21:22:16.057Z,26.60
2018-02-11T21:24:43.604Z,31.03
2018-02-11T21:27:11.124Z,24.80
2018-02-11T21:29:38.676Z,22.73
2018-02-11T21:32:06.956Z,25.70
2018-02-11T21:34:34.508Z,26.17
2018-02-11T21:37:02.028Z,24.00
2018-02-11T21:39:30.340Z,27.03
2018-02-11T21:41:57.861Z,27.83
2018-02-11T21:44:26.177Z,28.20
2018-02-11T21:46:53.697Z,25.27
2018-02-11T21:49:22.005Z,28.87
2018-02-11T21:51:49.525Z,29.70
2018-02-11T21:54:17.845Z,25.83
2018-02-11T21:56:45.365Z,28.87
2018-02-11T21:59:13.681Z,24.43
2018-02-11T22:01:41.200Z,25.00
2018-02-11T22:04:09.481Z,26.47
2018-02-11T22:06:37.800Z,28.53
2018-02-11T22:09:05.316Z,28.27
2018-02-11T22:11:33.621Z,25.60
2018-02-11T22:14:01.148Z,30.03
2018-02-11T22:16:29.456Z,26.63
2018-02-11T22:18:56.974Z,29.77
2018-02-11T22:21:25.288Z,26.83
2018-02-11T22:23:52.808Z,23.47
2018-02-11T22:26:21.124Z,27.03
2018-02-11T22:28:48.653Z,27.77
2018-02-11T22:31:16.971Z,21.07
2018-02-11T22:33:44.484Z,23.97
2018-02-11T22:36:12.797Z,22.03
2018-02-11T22:38:40.311Z,23.80
2018-02-11T22:41:08.617Z,21.27
2018-02-11T22:43:36.132Z,21.07
2018-02-11T22:46:03.672Z,22.87
2018-02-11T22:48:31.192Z,21.77
2018-02-11T22:50:58.749Z,25.80
2018-02-11T22:53:26.268Z,20.90
2018-02-11T22:55:53.784Z,21.83
2018-02-11T22:58:21.329Z,19.20
2018-02-11T23:00:48.888Z,26.37
2018-02-11T23:03:16.436Z,20.40
2018-02-11T23:05:43.961Z,21.67
2018-02-11T23:08:12.281Z,22.90
2018-02-11T23:10:39.792Z,22.33
2018-02-11T23:13:07.334Z,22.97
2018-02-11T23:15:34.856Z,21.87
2018-02-11T23:18:02.397Z,27.90
2018-02-11T23:20:29.925Z,22.20
2018-02-11T23:22:58.257Z,19.73
2018-02-11T23:25:25.789Z,22.40
2018-02-11T23:27:53.331Z,24.57
2018-02-11T23:30:21.627Z,21.97
2018-02-11T23:32:49.168Z,22.80
2018-02-11T23:35:17.460Z,23.77
2018-02-11T23:37:45.014Z,21.23
2018-02-11T23:40:12.534Z,21.23
2018-02-11T23:42:40.078Z,25.37
2018-02-11T23:45:07.649Z,25.53
2018-02-11T23:47:35.190Z,23.67
2018-02-11T23:50:02.704Z,26.90
2018-02-11T23:52:30.285Z,24.87
2018-02-11T23:54:57.796Z,28.00
2018-02-11T23:57:25.311Z,24.30
2018-02-11T23:59:52.847Z,26.73
